Time;durP1;ratioP1;P1;durP2;ratioP2;P2;SDS_P1;SDS_P2;PMS_P1;PMS_P2;Temp;Humidity;BMP_temperature;BMP_pressure;BME280_temperature;BME280_humidity;BME280_pressure;Samples;Min_cycle;Max_cycle;Signal;HPM_P1;HPM_P2
2023/09/26 00:01:35;;;;;;;4.93;3.65;;;19.50;92.50;;;;;;10489944;28;20791;-66
2023/09/26 00:06:37;;;;;;;5.07;3.70;;;19.50;92.50;;;;;;10494829;28;20403;-66
2023/09/26 00:11:38;;;;;;;4.53;3.60;;;19.50;92.50;;;;;;10491678;28;20415;-66
2023/09/26 00:16:38;;;;;;;4.47;3.33;;;19.40;92.60;;;;;;10484282;28;20410;-66
2023/09/26 00:21:39;;;;;;;4.77;3.43;;;19.50;92.60;;;;;;10494187;28;20402;-66
2023/09/26 00:26:40;;;;;;;5.37;3.40;;;19.40;92.60;;;;;;10490343;28;20402;-66
2023/09/26 00:31:40;;;;;;;4.60;3.50;;;19.40;92.60;;;;;;10498458;28;20410;-66
2023/09/26 00:36:41;;;;;;;4.90;3.60;;;19.40;92.60;;;;;;10492868;28;20617;-66
2023/09/26 00:41:41;;;;;;;4.80;3.50;;;19.40;92.60;;;;;;10497831;28;20405;-66
2023/09/26 00:46:43;;;;;;;4.43;3.40;;;19.40;92.60;;;;;;10499684;28;20401;-66
2023/09/26 00:51:43;;;;;;;5.03;3.50;;;19.30;92.60;;;;;;10510465;28;20405;-66
2023/09/26 00:56:45;;;;;;;4.70;3.50;;;19.30;92.70;;;;;;10507420;28;20963;-66
2023/09/26 01:01:48;;;;;;;4.53;3.25;;;19.20;92.70;;;;;;10509947;28;20421;-66
2023/09/26 01:06:49;;;;;;;4.17;3.17;;;19.20;92.70;;;;;;10499083;28;20662;-66
2023/09/26 01:11:50;;;;;;;4.88;3.40;;;19.20;92.70;;;;;;10500099;28;20833;-66
2023/09/26 01:16:55;;;;;;;5.07;3.60;;;19.30;92.80;;;;;;10496950;28;20406;-66
2023/09/26 01:21:55;;;;;;;4.57;3.33;;;19.20;92.70;;;;;;10495137;28;20498;-66
2023/09/26 01:26:56;;;;;;;4.67;3.40;;;19.20;92.70;;;;;;10502746;28;20491;-66
2023/09/26 01:31:57;;;;;;;4.87;3.30;;;19.20;92.80;;;;;;10505167;28;20619;-66
2023/09/26 01:36:57;;;;;;;4.40;3.53;;;18.50;92.60;;;;;;10505679;28;20508;-66
2023/09/26 01:41:58;;;;;;;3.70;3.23;;;19.10;92.70;;;;;;10495593;28;20773;-66
2023/09/26 01:46:58;;;;;;;4.93;3.53;;;19.10;92.70;;;;;;10513007;28;20400;-66
2023/09/26 01:51:59;;;;;;;3.90;3.20;;;19.10;92.70;;;;;;10493883;28;20468;-66
2023/09/26 01:57:00;;;;;;;4.47;3.20;;;19.10;92.70;;;;;;10505566;28;21008;-66
2023/09/26 02:02:02;;;;;;;4.90;3.40;;;19.10;92.90;;;;;;10509472;28;20428;-66
2023/09/26 02:07:03;;;;;;;5.00;3.57;;;19.10;92.70;;;;;;10497154;28;20408;-66
2023/09/26 02:12:07;;;;;;;6.60;3.20;;;19.10;92.70;;;;;;10498555;28;20878;-66
2023/09/26 02:17:10;;;;;;;3.60;3.30;;;19.10;92.70;;;;;;10491713;28;20405;-66
2023/09/26 02:22:10;;;;;;;4.50;3.50;;;19.10;92.70;;;;;;10496303;28;20451;-66
2023/09/26 02:27:11;;;;;;;3.43;2.93;;;19.10;92.70;;;;;;10509839;28;20439;-66
2023/09/26 02:32:12;;;;;;;4.43;3.20;;;19.10;92.60;;;;;;10507503;28;21009;-66
2023/09/26 02:37:13;;;;;;;4.07;3.43;;;19.00;92.60;;;;;;10498302;28;20398;-66
2023/09/26 02:42:13;;;;;;;4.60;3.40;;;19.00;92.60;;;;;;10503975;28;20451;-66
2023/09/26 02:47:14;;;;;;;4.15;3.30;;;19.00;92.60;;;;;;10508054;28;20397;-66
2023/09/26 02:52:15;;;;;;;3.88;3.30;;;19.00;92.60;;;;;;10491304;28;20854;-66
2023/09/26 02:57:20;;;;;;;4.15;3.50;;;19.00;92.70;;;;;;10503953;28;20502;-66
2023/09/26 03:02:21;;;;;;;4.30;3.30;;;19.00;92.70;;;;;;10504130;28;20773;-66
2023/09/26 03:07:22;;;;;;;4.57;3.37;;;18.90;92.60;;;;;;10493902;28;20402;-66
2023/09/26 03:12:22;;;;;;;4.20;3.43;;;19.00;92.70;;;;;;10499004;28;20394;-66
2023/09/26 03:17:23;;;;;;;4.50;3.37;;;19.00;92.60;;;;;;10494351;28;20394;-66
2023/09/26 03:22:23;;;;;;;5.40;3.80;;;19.00;92.60;;;;;;10499223;28;20394;-66
2023/09/26 03:27:24;;;;;;;4.67;3.57;;;18.90;92.60;;;;;;10505598;28;20901;-66
2023/09/26 03:32:25;;;;;;;5.63;3.50;;;18.90;92.60;;;;;;10508539;28;20412;-66
2023/09/26 03:37:25;;;;;;;5.47;3.70;;;18.90;92.60;;;;;;10508154;28;20455;-66
2023/09/26 03:42:26;;;;;;;4.97;3.60;;;18.80;92.60;;;;;;10512915;28;20398;-66
2023/09/26 03:47:27;;;;;;;4.57;3.60;;;18.80;92.50;;;;;;10501264;28;20441;-66
2023/09/26 03:52:28;;;;;;;4.67;3.60;;;18.80;92.70;;;;;;10488874;28;20407;-66
2023/09/26 03:57:32;;;;;;;4.50;3.63;;;18.80;92.50;;;;;;10500814;28;20765;-66
2023/09/26 04:02:33;;;;;;;4.80;3.60;;;18.80;92.50;;;;;;10495723;28;20393;-66
2023/09/26 04:07:33;;;;;;;4.85;3.70;;;18.80;92.50;;;;;;10491533;28;20400;-66
2023/09/26 04:12:34;;;;;;;6.03;4.10;;;18.70;92.40;;;;;;10495628;28;20397;-66
2023/09/26 04:17:35;;;;;;;5.28;4.00;;;18.70;92.40;;;;;;10490304;28;20398;-66
2023/09/26 04:22:37;;;;;;;4.97;4.03;;;18.70;92.40;;;;;;10487400;28;20471;-67
2023/09/26 04:27:38;;;;;;;4.25;3.85;;;18.70;92.40;;;;;;10497116;28;20431;-66
2023/09/26 04:32:38;;;;;;;5.67;4.13;;;18.70;92.30;;;;;;10502390;28;20477;-66
2023/09/26 04:37:39;;;;;;;5.60;4.47;;;18.60;92.30;;;;;;10499513;28;20405;-66
2023/09/26 04:42:41;;;;;;;6.20;4.47;;;18.60;92.30;;;;;;10494346;28;21102;-66
2023/09/26 04:47:42;;;;;;;6.55;4.57;;;18.60;92.30;;;;;;10501041;28;20403;-66
2023/09/26 04:52:43;;;;;;;6.07;4.53;;;18.60;92.20;;;;;;10484540;28;20423;-66
2023/09/26 04:57:43;;;;;;;5.30;4.27;;;18.60;92.20;;;;;;10498203;28;20445;-66
2023/09/26 05:02:45;;;;;;;6.07;4.40;;;18.60;92.20;;;;;;10498923;28;20395;-66
2023/09/26 05:07:48;;;;;;;6.75;4.80;;;18.60;92.20;;;;;;10491320;28;20413;-66
2023/09/26 05:12:49;;;;;;;5.73;4.80;;;18.50;92.10;;;;;;10495613;28;20390;-66
2023/09/26 05:17:51;;;;;;;6.43;4.77;;;18.50;92.10;;;;;;10476852;28;20950;-66
2023/09/26 05:22:52;;;;;;;6.17;4.60;;;18.50;92.10;;;;;;10489877;28;20495;-66
2023/09/26 05:27:53;;;;;;;5.45;4.78;;;18.50;92.10;;;;;;10496452;28;20918;-66
2023/09/26 05:32:54;;;;;;;6.35;4.82;;;18.50;92.10;;;;;;10502117;28;20390;-66
2023/09/26 05:37:54;;;;;;;6.05;4.60;;;18.40;92.00;;;;;;10503919;28;20399;-66
2023/09/26 05:42:55;;;;;;;6.57;4.65;;;18.40;91.90;;;;;;10504648;28;20392;-66
2023/09/26 05:47:55;;;;;;;5.88;4.82;;;18.40;91.90;;;;;;10509697;28;20453;-66
2023/09/26 05:52:56;;;;;;;7.53;5.20;;;18.40;91.90;;;;;;10504448;28;20404;-66
2023/09/26 05:57:57;;;;;;;5.73;4.90;;;18.40;91.90;;;;;;10505166;28;20495;-66
2023/09/26 06:02:57;;;;;;;6.57;4.87;;;18.40;91.80;;;;;;10477718;28;20416;-66
2023/09/26 06:07:58;;;;;;;5.90;4.60;;;18.40;91.80;;;;;;10496417;28;20449;-66
2023/09/26 06:12:59;;;;;;;6.83;5.00;;;18.40;91.70;;;;;;10490170;28;20411;-66
2023/09/26 06:18:00;;;;;;;6.00;4.78;;;18.30;91.70;;;;;;10486944;28;20412;-66
2023/09/26 06:23:00;;;;;;;5.63;4.77;;;18.30;91.70;;;;;;10491902;28;21021;-67
2023/09/26 06:28:01;;;;;;;7.10;5.60;;;18.30;91.60;;;;;;10496799;28;20972;-68
2023/09/26 06:33:02;;;;;;;7.13;5.30;;;18.30;91.70;;;;;;10502440;28;20774;-65
2023/09/26 06:38:02;;;;;;;6.47;4.87;;;18.30;91.80;;;;;;10495514;28;20407;-65
2023/09/26 06:43:03;;;;;;;7.03;5.20;;;18.30;91.80;;;;;;10491942;28;20476;-66
2023/09/26 06:48:05;;;;;;;6.65;4.88;;;18.30;91.60;;;;;;10484910;28;20419;-66
2023/09/26 06:53:07;;;;;;;6.60;5.00;;;18.30;91.60;;;;;;10495627;28;20977;-66
2023/09/26 06:58:19;;;;;;;6.35;4.80;;;18.30;91.60;;;;;;10488220;28;20409;-66
2023/09/26 07:03:20;;;;;;;6.43;4.97;;;18.30;91.50;;;;;;10503594;28;20912;-66
2023/09/26 07:08:21;;;;;;;6.77;4.80;;;18.30;91.50;;;;;;10493259;28;20409;-67
2023/09/26 07:13:21;;;;;;;5.85;4.65;;;18.30;91.50;;;;;;10492554;28;20571;-67
2023/09/26 07:18:22;;;;;;;6.10;4.70;;;18.30;91.40;;;;;;10491812;28;20401;-66
2023/09/26 07:23:23;;;;;;;7.60;5.40;;;18.30;91.40;;;;;;10491282;28;20451;-66
2023/09/26 07:28:23;;;;;;;6.70;5.15;;;18.30;91.70;;;;;;10490995;28;20475;-66
2023/09/26 07:33:24;;;;;;;5.80;4.80;;;18.30;91.80;;;;;;10500780;28;20434;-68
2023/09/26 07:38:25;;;;;;;7.53;5.55;;;18.60;91.60;;;;;;10491565;28;20394;-66
2023/09/26 07:43:29;;;;;;;6.60;5.05;;;18.40;91.60;;;;;;10494707;28;20409;-66
2023/09/26 07:48:32;;;;;;;7.13;5.13;;;18.40;91.50;;;;;;10503809;28;20417;-66
2023/09/26 07:53:33;;;;;;;6.13;4.80;;;18.50;91.50;;;;;;10498305;28;20854;-66
2023/09/26 07:58:33;;;;;;;5.93;4.50;;;18.50;91.40;;;;;;10502726;28;20413;-66
2023/09/26 08:03:38;;;;;;;6.13;4.78;;;18.50;91.40;;;;;;10499210;28;20402;-66
2023/09/26 08:08:38;;;;;;;6.87;4.77;;;18.50;91.40;;;;;;10489427;28;20518;-66
2023/09/26 08:13:40;;;;;;;6.53;4.90;;;18.50;91.40;;;;;;10485213;28;20964;-66
2023/09/26 08:18:40;;;;;;;7.63;4.63;;;18.50;91.40;;;;;;10495335;28;20408;-66
2023/09/26 08:23:41;;;;;;;6.77;4.67;;;18.50;91.40;;;;;;10497709;28;20402;-66
2023/09/26 08:28:42;;;;;;;6.17;4.60;;;18.50;91.40;;;;;;10486836;28;20444;-66
2023/09/26 08:33:43;;;;;;;6.23;4.60;;;18.50;91.40;;;;;;10493897;28;20442;-66
2023/09/26 08:38:45;;;;;;;7.33;4.40;;;18.50;91.50;;;;;;10478685;28;20400;-66
2023/09/26 08:43:46;;;;;;;5.55;4.40;;;18.60;91.50;;;;;;10489894;28;20393;-66
2023/09/26 08:48:48;;;;;;;5.47;4.53;;;18.60;91.50;;;;;;10480223;28;20428;-66
2023/09/26 08:53:49;;;;;;;6.97;4.75;;;18.70;91.50;;;;;;10486475;28;20394;-66
2023/09/26 08:58:51;;;;;;;6.25;4.80;;;18.50;91.50;;;;;;10493565;28;20763;-66
2023/09/26 09:03:51;;;;;;;5.32;4.20;;;18.60;91.60;;;;;;10500659;28;21021;-65
2023/09/26 09:09:07;;;;;;;4.83;4.33;;;18.70;91.60;;;;;;10487351;28;20407;-66
2023/09/26 09:14:08;;;;;;;6.33;4.60;;;18.70;91.50;;;;;;10487022;28;20408;-66
2023/09/26 09:19:08;;;;;;;6.30;4.67;;;18.80;91.50;;;;;;10499407;28;21113;-66
2023/09/26 09:24:09;;;;;;;5.95;4.60;;;18.90;91.40;;;;;;10492281;28;20505;-66
2023/09/26 09:29:21;;;;;;;5.32;4.45;;;19.00;91.40;;;;;;10491534;28;20409;-66
2023/09/26 09:34:25;;;;;;;6.40;4.80;;;19.00;91.20;;;;;;10502533;28;20407;-66
2023/09/26 09:39:26;;;;;;;5.73;4.43;;;19.00;91.20;;;;;;10491645;28;20403;-66
2023/09/26 09:44:26;;;;;;;6.95;4.50;;;19.10;91.20;;;;;;10491734;28;20899;-66
2023/09/26 09:49:37;;;;;;;6.78;4.85;;;19.10;91.40;;;;;;10497315;28;20416;-66
2023/09/26 09:54:43;;;;;;;6.63;4.63;;;19.10;91.20;;;;;;10504151;28;20742;-65
2023/09/26 09:59:47;;;;;;;6.07;4.83;;;19.10;91.20;;;;;;10501113;28;20414;-66
2023/09/26 10:04:48;;;;;;;6.70;4.47;;;19.10;91.20;;;;;;10491684;28;20408;-66
2023/09/26 10:09:50;;;;;;;7.93;4.40;;;19.20;91.20;;;;;;10490917;28;20458;-66
2023/09/26 10:14:55;;;;;;;6.93;4.55;;;19.20;91.20;;;;;;10490663;28;20400;-66
2023/09/26 10:19:56;;;;;;;6.07;4.40;;;19.20;91.20;;;;;;10491055;28;20751;-66
2023/09/26 10:25:00;;;;;;;5.90;4.25;;;19.20;91.10;;;;;;10497336;28;20478;-66
2023/09/26 10:30:01;;;;;;;6.03;4.20;;;19.30;91.10;;;;;;10496847;28;20755;-66
2023/09/26 10:35:22;;;;;;;4.80;4.20;;;19.30;91.10;;;;;;10489328;28;20405;-66
2023/09/26 10:40:22;;;;;;;6.63;4.45;;;19.30;91.10;;;;;;10492643;28;20465;-66
2023/09/26 10:45:23;;;;;;;5.73;4.30;;;19.40;91.20;;;;;;10492728;28;20395;-66
2023/09/26 10:50:24;;;;;;;6.37;4.30;;;19.40;91.10;;;;;;10497523;28;20408;-66
2023/09/26 10:55:25;;;;;;;5.68;4.60;;;19.40;91.10;;;;;;10496638;28;20392;-66
2023/09/26 11:00:26;;;;;;;6.33;4.53;;;19.50;91.10;;;;;;10498611;28;20420;-66
2023/09/26 11:05:27;;;;;;;6.63;4.80;;;19.50;91.10;;;;;;10499150;28;20904;-66
2023/09/26 11:10:28;;;;;;;5.97;4.63;;;19.50;91.10;;;;;;10493005;28;20424;-66
2023/09/26 11:15:30;;;;;;;6.30;4.65;;;19.50;91.10;;;;;;10486414;28;20391;-66
2023/09/26 11:20:30;;;;;;;6.57;4.43;;;19.60;91.20;;;;;;10489326;28;20396;-66
2023/09/26 11:25:32;;;;;;;6.38;4.55;;;19.60;91.20;;;;;;10495116;28;20482;-66
2023/09/26 11:30:32;;;;;;;6.00;4.70;;;19.60;91.20;;;;;;10494956;28;20499;-66
2023/09/26 11:35:33;;;;;;;7.13;5.00;;;19.60;91.20;;;;;;10502538;28;20419;-66
2023/09/26 11:40:34;;;;;;;5.50;4.47;;;19.60;91.20;;;;;;10503454;28;20472;-66
2023/09/26 11:45:34;;;;;;;6.93;4.63;;;19.70;91.20;;;;;;10503327;28;20460;-66
2023/09/26 11:50:40;;;;;;;5.65;4.50;;;19.70;91.20;;;;;;10504324;28;20419;-66
2023/09/26 11:55:42;;;;;;;7.30;5.00;;;19.80;91.20;;;;;;10499917;28;20436;-66
2023/09/26 12:00:43;;;;;;;6.80;4.80;;;19.80;91.20;;;;;;10495941;28;20986;-66
2023/09/26 12:05:43;;;;;;;7.33;5.00;;;19.80;91.20;;;;;;10499840;28;20776;-66
2023/09/26 12:10:44;;;;;;;6.60;4.90;;;19.90;91.30;;;;;;10496557;28;20917;-66
2023/09/26 12:15:45;;;;;;;6.20;4.90;;;19.90;91.30;;;;;;10500591;28;20602;-66
2023/09/26 12:20:45;;;;;;;6.73;4.90;;;20.00;91.30;;;;;;10508553;28;20390;-66
2023/09/26 12:25:46;;;;;;;6.70;4.95;;;20.00;91.30;;;;;;10484986;28;20406;-66
2023/09/26 12:30:47;;;;;;;6.87;4.80;;;20.10;91.30;;;;;;10501427;28;20472;-66
2023/09/26 12:35:47;;;;;;;5.37;4.63;;;20.10;91.30;;;;;;10487922;28;20408;-66
2023/09/26 12:40:48;;;;;;;6.30;4.85;;;20.00;91.30;;;;;;10506374;28;20389;-66
2023/09/26 12:45:48;;;;;;;7.17;4.57;;;20.10;91.30;;;;;;10512322;28;20395;-66
2023/09/26 12:50:49;;;;;;;6.33;4.40;;;20.10;91.30;;;;;;10511970;28;20405;-66
2023/09/26 12:55:51;;;;;;;5.20;4.13;;;20.20;91.40;;;;;;10509086;28;20382;-66
2023/09/26 13:00:52;;;;;;;5.50;4.30;;;20.20;91.40;;;;;;10508564;28;20916;-66
2023/09/26 13:05:53;;;;;;;6.53;4.33;;;20.20;91.40;;;;;;10510984;28;20605;-66
2023/09/26 13:10:53;;;;;;;5.70;4.20;;;20.30;91.40;;;;;;10504963;28;20457;-66
2023/09/26 13:15:54;;;;;;;5.43;3.90;;;20.30;91.40;;;;;;10499487;28;20393;-66
2023/09/26 13:20:54;;;;;;;5.47;4.10;;;20.30;91.50;;;;;;10499335;28;20404;-66
2023/09/26 13:25:55;;;;;;;5.57;4.30;;;20.30;91.40;;;;;;10499891;28;20409;-66
2023/09/26 13:30:56;;;;;;;4.40;3.97;;;20.30;91.40;;;;;;10515450;28;20937;-66
2023/09/26 13:35:57;;;;;;;5.88;4.00;;;20.40;91.40;;;;;;10497686;28;20580;-66
2023/09/26 13:40:58;;;;;;;5.38;3.85;;;20.40;91.40;;;;;;10503938;28;20886;-66
2023/09/26 13:45:58;;;;;;;5.65;4.07;;;20.50;91.40;;;;;;10512202;28;20398;-66
2023/09/26 13:50:59;;;;;;;5.43;4.03;;;20.60;91.40;;;;;;10518214;28;20893;-66
2023/09/26 13:55:59;;;;;;;6.60;4.30;;;20.50;91.60;;;;;;10512309;28;20963;-66
2023/09/26 14:01:03;;;;;;;4.17;3.43;;;20.50;91.40;;;;;;10515599;28;20404;-66
2023/09/26 14:06:03;;;;;;;5.28;4.10;;;20.50;91.20;;;;;;10495336;28;20451;-66
2023/09/26 14:11:05;;;;;;;5.10;3.80;;;20.60;91.20;;;;;;10497740;28;20469;-66
2023/09/26 14:16:06;;;;;;;4.50;3.70;;;20.60;91.20;;;;;;10490995;28;20414;-66
2023/09/26 14:21:13;;;;;;;4.93;3.80;;;20.50;91.20;;;;;;10500756;28;20403;-66
2023/09/26 14:26:14;;;;;;;5.10;3.83;;;20.50;91.30;;;;;;10497573;28;20424;-66
2023/09/26 14:31:19;;;;;;;4.57;3.70;;;20.60;91.40;;;;;;10491271;28;20850;-66
2023/09/26 14:36:19;;;;;;;5.32;3.85;;;20.50;91.30;;;;;;10489548;28;20404;-66
2023/09/26 14:41:20;;;;;;;4.60;3.80;;;20.60;91.40;;;;;;10500130;28;20735;-66
2023/09/26 14:46:21;;;;;;;4.77;3.70;;;20.60;91.30;;;;;;10495317;28;20390;-66
2023/09/26 14:51:21;;;;;;;4.80;3.80;;;20.60;91.30;;;;;;10496741;28;20410;-66
2023/09/26 14:56:22;;;;;;;4.13;3.53;;;20.60;91.30;;;;;;10500564;28;20396;-66
2023/09/26 15:01:23;;;;;;;4.87;3.70;;;20.60;91.40;;;;;;10490008;28;20480;-66
2023/09/26 15:06:23;;;;;;;5.03;3.50;;;20.60;91.40;;;;;;10493309;28;20502;-66
2023/09/26 15:11:24;;;;;;;6.47;3.80;;;20.60;91.50;;;;;;10497882;28;20586;-66
2023/09/26 15:16:25;;;;;;;4.83;3.83;;;20.60;91.50;;;;;;10482815;28;20394;-66
2023/09/26 15:21:25;;;;;;;6.03;3.83;;;20.80;91.70;;;;;;10492139;28;20478;-66
2023/09/26 15:26:26;;;;;;;4.30;3.40;;;20.60;91.70;;;;;;10496394;28;20397;-66
2023/09/26 15:31:27;;;;;;;5.43;3.60;;;20.60;91.70;;;;;;10500134;28;20780;-66
2023/09/26 15:36:27;;;;;;;3.83;3.43;;;20.60;91.80;;;;;;10498034;28;20411;-66
2023/09/26 15:41:28;;;;;;;5.10;3.92;;;20.60;91.80;;;;;;10491026;28;20401;-66
2023/09/26 15:46:29;;;;;;;4.22;3.65;;;20.60;91.80;;;;;;10496111;28;20812;-66
2023/09/26 15:51:32;;;;;;;4.30;3.60;;;20.60;91.90;;;;;;10490431;28;20418;-66
2023/09/26 15:56:32;;;;;;;5.53;4.00;;;20.60;91.90;;;;;;10499792;28;20390;-66
2023/09/26 16:01:33;;;;;;;5.00;3.77;;;20.70;92.00;;;;;;10494135;28;20406;-66
2023/09/26 16:06:34;;;;;;;4.63;3.53;;;20.60;91.90;;;;;;10494870;28;20399;-66
2023/09/26 16:11:34;;;;;;;5.23;3.40;;;20.60;92.00;;;;;;10501606;28;20981;-66
2023/09/26 16:16:35;;;;;;;4.43;3.70;;;20.60;92.00;;;;;;10496434;28;20412;-66
2023/09/26 16:21:36;;;;;;;5.10;3.43;;;20.60;92.00;;;;;;10483010;28;20971;-66
2023/09/26 16:26:36;;;;;;;5.80;3.60;;;20.60;92.00;;;;;;10495803;28;20452;-66
2023/09/26 16:31:37;;;;;;;4.50;3.43;;;20.60;92.00;;;;;;10495240;28;20409;-66
2023/09/26 16:36:40;;;;;;;5.33;4.00;;;20.60;92.10;;;;;;10501703;28;20950;-66
2023/09/26 16:41:40;;;;;;;5.20;3.80;;;20.50;92.20;;;;;;10501936;28;20401;-66
2023/09/26 16:46:41;;;;;;;4.37;3.60;;;20.50;92.10;;;;;;10505836;28;20403;-66
2023/09/26 16:51:42;;;;;;;5.77;4.00;;;20.50;92.10;;;;;;10507034;28;20970;-66
2023/09/26 16:56:43;;;;;;;5.13;4.00;;;20.50;92.20;;;;;;10495324;28;20914;-66
2023/09/26 17:01:43;;;;;;;4.60;3.80;;;20.40;92.30;;;;;;10489915;28;20417;-66
2023/09/26 17:06:44;;;;;;;5.43;4.00;;;20.40;92.30;;;;;;10488666;28;20552;-66
2023/09/26 17:11:44;;;;;;;5.47;4.20;;;20.40;92.30;;;;;;10507064;28;20405;-66
2023/09/26 17:16:45;;;;;;;5.40;4.13;;;20.40;92.40;;;;;;10485267;28;20404;-66
2023/09/26 17:21:46;;;;;;;4.73;4.20;;;20.40;92.60;;;;;;10490941;28;20443;-66
2023/09/26 17:26:47;;;;;;;4.25;3.70;;;20.30;92.60;;;;;;10503850;28;20395;-66
2023/09/26 17:31:48;;;;;;;6.40;4.60;;;20.30;92.60;;;;;;10506424;28;20845;-66
2023/09/26 17:36:49;;;;;;;5.00;4.37;;;20.30;92.70;;;;;;10506857;28;20397;-66
2023/09/26 17:41:49;;;;;;;4.72;3.85;;;20.30;92.70;;;;;;10507555;28;20487;-66
2023/09/26 17:46:51;;;;;;;5.30;4.20;;;20.20;92.70;;;;;;10491007;28;20393;-66
2023/09/26 17:51:54;;;;;;;6.53;4.22;;;20.20;92.80;;;;;;10506409;28;20439;-66
2023/09/26 17:56:54;;;;;;;5.90;4.05;;;20.20;92.80;;;;;;10506210;28;20390;-66
2023/09/26 18:01:55;;;;;;;5.47;4.57;;;20.20;92.80;;;;;;10500148;28;20451;-66
2023/09/26 18:06:56;;;;;;;5.40;4.28;;;20.20;92.90;;;;;;10495020;28;20414;-66
2023/09/26 18:11:56;;;;;;;5.20;4.40;;;20.20;92.90;;;;;;10509245;28;20408;-66
2023/09/26 18:16:57;;;;;;;6.57;4.70;;;20.10;92.90;;;;;;10489467;28;20393;-66
2023/09/26 18:21:58;;;;;;;5.20;4.60;;;20.10;92.90;;;;;;10502085;28;20422;-66
2023/09/26 18:26:58;;;;;;;5.47;4.67;;;20.10;92.90;;;;;;10491770;28;20530;-66
2023/09/26 18:31:59;;;;;;;5.47;4.50;;;20.10;93.00;;;;;;10503493;28;20409;-66
2023/09/26 18:37:00;;;;;;;5.20;4.30;;;20.10;93.00;;;;;;10501254;28;20407;-66
2023/09/26 18:42:00;;;;;;;5.57;4.60;;;20.10;93.00;;;;;;10502911;28;20716;-66
2023/09/26 18:47:01;;;;;;;4.95;4.10;;;20.00;93.00;;;;;;10500652;28;20416;-66
2023/09/26 18:52:01;;;;;;;4.75;4.20;;;20.00;93.00;;;;;;10480833;28;20415;-66
2023/09/26 18:57:02;;;;;;;5.85;4.55;;;20.00;93.10;;;;;;10491086;28;21138;-66
2023/09/26 19:02:05;;;;;;;6.07;4.35;;;20.00;93.10;;;;;;10483792;28;20830;-66
2023/09/26 19:07:06;;;;;;;5.00;4.40;;;20.00;93.10;;;;;;10488371;28;20404;-66
2023/09/26 19:12:07;;;;;;;6.50;4.70;;;20.00;93.20;;;;;;10481607;28;20907;-66
2023/09/26 19:17:07;;;;;;;6.40;5.35;;;19.90;93.30;;;;;;10479972;28;20552;-66
2023/09/26 19:22:08;;;;;;;6.15;5.25;;;19.90;93.20;;;;;;10484081;28;20738;-66
2023/09/26 19:27:09;;;;;;;7.37;5.30;;;20.00;93.20;;;;;;10486143;28;20512;-66
2023/09/26 19:32:10;;;;;;;6.07;5.33;;;19.90;93.20;;;;;;10492391;28;20579;-66
2023/09/26 19:37:10;;;;;;;6.43;5.27;;;19.90;93.30;;;;;;10480452;28;20398;-66
2023/09/26 19:42:11;;;;;;;7.37;5.60;;;19.90;93.30;;;;;;10491324;28;20420;-66
2023/09/26 19:47:11;;;;;;;6.23;5.17;;;19.90;93.30;;;;;;10481533;28;20402;-66
2023/09/26 19:52:13;;;;;;;6.17;5.43;;;19.90;93.40;;;;;;10486170;28;20427;-66
2023/09/26 19:57:14;;;;;;;7.88;6.25;;;19.80;93.40;;;;;;10488029;28;20399;-66
2023/09/26 20:02:14;;;;;;;7.40;5.97;;;19.80;93.40;;;;;;10490610;28;20750;-66
2023/09/26 20:07:15;;;;;;;7.10;5.70;;;19.80;93.70;;;;;;10485547;28;20765;-66
2023/09/26 20:12:15;;;;;;;8.00;5.80;;;19.70;93.40;;;;;;10488826;28;20433;-66
2023/09/26 20:17:16;;;;;;;9.73;8.20;;;19.80;93.50;;;;;;10488650;28;20405;-66
2023/09/26 20:22:17;;;;;;;7.57;6.77;;;19.80;93.50;;;;;;10491811;28;20425;-66
2023/09/26 20:27:18;;;;;;;9.60;7.47;;;19.80;93.60;;;;;;10485221;28;20485;-66
2023/09/26 20:32:18;;;;;;;8.70;7.80;;;19.70;93.60;;;;;;10493574;28;20406;-66
2023/09/26 20:37:19;;;;;;;8.77;6.73;;;19.70;93.60;;;;;;10489961;28;20432;-66
2023/09/26 20:42:19;;;;;;;9.27;7.40;;;19.70;93.70;;;;;;10490785;28;20415;-66
2023/09/26 20:47:20;;;;;;;9.60;7.20;;;19.70;93.70;;;;;;10499412;28;20675;-66
2023/09/26 20:52:21;;;;;;;8.67;7.73;;;19.70;93.80;;;;;;10494123;28;20406;-66
2023/09/26 20:57:21;;;;;;;8.77;7.10;;;19.60;93.80;;;;;;10488097;28;20386;-66
2023/09/26 21:02:22;;;;;;;8.40;7.30;;;19.60;93.80;;;;;;10497187;28;21034;-66
2023/09/26 21:07:23;;;;;;;8.33;7.33;;;19.60;93.90;;;;;;10499807;28;20642;-66
2023/09/26 21:12:24;;;;;;;8.57;7.20;;;19.60;93.90;;;;;;10495498;28;20411;-67
2023/09/26 21:17:25;;;;;;;8.13;6.88;;;19.60;93.90;;;;;;10496942;28;20400;-66
2023/09/26 21:22:25;;;;;;;7.85;6.53;;;19.60;93.90;;;;;;10492063;28;20395;-66
2023/09/26 21:27:26;;;;;;;8.07;6.57;;;19.50;93.90;;;;;;10495045;28;20705;-66
2023/09/26 21:32:27;;;;;;;7.68;6.43;;;19.50;93.90;;;;;;10498709;28;20407;-66
2023/09/26 21:37:27;;;;;;;7.00;6.30;;;19.50;93.90;;;;;;10494529;28;20407;-66
2023/09/26 21:42:28;;;;;;;8.05;6.57;;;19.40;93.90;;;;;;10502300;28;20414;-66
2023/09/26 21:47:29;;;;;;;8.20;6.70;;;19.50;93.90;;;;;;10502019;28;20921;-66
2023/09/26 21:52:29;;;;;;;6.83;6.13;;;19.50;93.90;;;;;;10501202;28;20540;-66
2023/09/26 21:57:30;;;;;;;7.63;6.37;;;19.40;93.90;;;;;;10496111;28;20599;-66
2023/09/26 22:02:31;;;;;;;6.80;6.10;;;19.50;93.90;;;;;;10505902;28;20395;-66
2023/09/26 22:07:32;;;;;;;7.93;6.53;;;19.40;93.90;;;;;;10494021;28;20403;-66
2023/09/26 22:12:32;;;;;;;7.80;6.50;;;19.40;93.90;;;;;;10504028;28;20419;-66
2023/09/26 22:17:41;;;;;;;8.18;6.60;;;19.40;94.00;;;;;;10500561;28;20392;-66
2023/09/26 22:22:44;;;;;;;8.48;6.70;;;19.40;94.00;;;;;;10499989;28;20597;-66
2023/09/26 22:27:45;;;;;;;7.57;6.20;;;19.40;94.00;;;;;;10492331;28;20488;-66
2023/09/26 22:32:45;;;;;;;9.03;6.60;;;19.40;94.00;;;;;;10497252;28;20403;-66
2023/09/26 22:37:46;;;;;;;7.47;6.10;;;19.30;93.90;;;;;;10496409;28;20454;-66
2023/09/26 22:42:46;;;;;;;8.00;6.37;;;19.30;94.00;;;;;;10499704;28;20414;-66
2023/09/26 22:47:47;;;;;;;7.60;6.07;;;19.30;93.90;;;;;;10500831;28;20398;-66
2023/09/26 22:52:48;;;;;;;7.53;6.40;;;19.30;93.90;;;;;;10492753;28;20850;-66
2023/09/26 22:57:48;;;;;;;8.77;6.70;;;20.40;94.20;;;;;;10487615;28;20411;-66
2023/09/26 23:02:49;;;;;;;7.43;6.23;;;19.20;93.90;;;;;;10502745;28;20411;-66
2023/09/26 23:07:50;;;;;;;8.90;6.53;;;19.30;93.90;;;;;;10492845;28;20398;-66
2023/09/26 23:12:51;;;;;;;7.67;6.60;;;19.20;93.90;;;;;;10509963;28;20498;-66
2023/09/26 23:17:51;;;;;;;7.63;6.18;;;19.20;93.80;;;;;;10496824;28;20403;-66
2023/09/26 23:22:52;;;;;;;9.15;6.45;;;19.20;93.80;;;;;;10495890;28;20470;-66
2023/09/26 23:27:52;;;;;;;7.67;6.30;;;19.20;93.80;;;;;;10502499;28;20418;-66
2023/09/26 23:32:54;;;;;;;9.52;6.45;;;19.20;93.80;;;;;;10508554;28;20433;-66
2023/09/26 23:37:54;;;;;;;8.30;6.53;;;19.20;93.80;;;;;;10498814;28;20407;-66
2023/09/26 23:42:55;;;;;;;9.07;6.57;;;19.10;93.80;;;;;;10504032;28;20402;-66
2023/09/26 23:47:55;;;;;;;8.40;6.47;;;19.20;93.80;;;;;;10511680;28;20393;-66
2023/09/26 23:52:56;;;;;;;8.18;6.30;;;19.10;93.70;;;;;;10498851;28;20406;-66
2023/09/26 23:57:57;;;;;;;7.65;6.70;;;19.10;93.70;;;;;;10499792;28;20402;-66
